Weatherby Lake, Missouri
Current Conditions -  °F | °C
As of 9:53 PM on Friday 24 Oct 2014 (Local Time) from KMCI Reporting Station
Broken Clouds Broken Clouds  
Wind Chill: 64°   Ceiling: 25000
Heat Index: 64°   Visibility: 10mi
Dew Point: 61°   Wind: 8mph
Humidity: 90%   Direction: 210°SSW
Pressure: 29.98"   Gusts: NA
Location:  39.2806°N, 94.7299°W
Report Text: KMCI 250253Z 21007KT 10SM BKN250 18/16 A2998 RMK AO2 SLP148 T01780161 51017
Loading
Personal Weather Stations






























Interactive Weather Map
Tropical Storm Tracking
New forecast layout! Learn more

10-Day Weather Forecast

Advertisements
Track Severe Weather on mobile